sensor_id;sensor_type;location;lat;lon;timestamp;pressure;altitude;pressure_sealevel;temperature;humidity
21185;BME280;18176;49.502;11.754;2023-11-21T00:01:34;96364.59;;;12.68;68.11
21185;BME280;18176;49.502;11.754;2023-11-21T00:05:37;96371.31;;;12.81;67.83
21185;BME280;18176;49.502;11.754;2023-11-21T00:09:38;96357.13;;;12.60;67.79
21185;BME280;18176;49.502;11.754;2023-11-21T00:13:40;96370.13;;;12.57;67.98
21185;BME280;18176;49.502;11.754;2023-11-21T00:17:41;96390.31;;;12.58;67.75
21185;BME280;18176;49.502;11.754;2023-11-21T00:21:44;96388.31;;;12.80;67.38
21185;BME280;18176;49.502;11.754;2023-11-21T00:25:44;96381.19;;;12.86;66.97
21185;BME280;18176;49.502;11.754;2023-11-21T00:29:45;96373.97;;;12.81;67.25
21185;BME280;18176;49.502;11.754;2023-11-21T00:33:45;96375.59;;;12.82;67.27
21185;BME280;18176;49.502;11.754;2023-11-21T00:37:48;96348.88;;;12.62;67.52
21185;BME280;18176;49.502;11.754;2023-11-21T00:41:50;96378.22;;;12.77;67.12
21185;BME280;18176;49.502;11.754;2023-11-21T00:45:51;96364.91;;;12.72;66.85
21185;BME280;18176;49.502;11.754;2023-11-21T00:49:51;96375.03;;;12.75;67.46
21185;BME280;18176;49.502;11.754;2023-11-21T00:53:54;96377.69;;;12.80;66.99
21185;BME280;18176;49.502;11.754;2023-11-21T00:57:54;96368.66;;;12.81;66.92
21185;BME280;18176;49.502;11.754;2023-11-21T01:01:55;96351.53;;;12.57;67.25
21185;BME280;18176;49.502;11.754;2023-11-21T01:05:58;96370.16;;;12.67;67.50
21185;BME280;18176;49.502;11.754;2023-11-21T01:10:00;96381.34;;;12.69;67.42
21185;BME280;18176;49.502;11.754;2023-11-21T01:14:04;96373.47;;;12.84;67.09
21185;BME280;18176;49.502;11.754;2023-11-21T01:18:06;96361.19;;;12.73;67.00
21185;BME280;18176;49.502;11.754;2023-11-21T01:22:06;96356.94;;;12.77;66.52
21185;BME280;18176;49.502;11.754;2023-11-21T01:26:09;96369.00;;;12.95;66.07
21185;BME280;18176;49.502;11.754;2023-11-21T01:30:10;96373.81;;;12.98;65.99
21185;BME280;18176;49.502;11.754;2023-11-21T01:34:10;96365.56;;;12.99;66.04
21185;BME280;18176;49.502;11.754;2023-11-21T01:38:12;96369.31;;;13.03;65.87
21185;BME280;18176;49.502;11.754;2023-11-21T01:42:17;96375.63;;;12.92;66.22
21185;BME280;18176;49.502;11.754;2023-11-21T01:46:17;96372.41;;;12.85;66.37
21185;BME280;18176;49.502;11.754;2023-11-21T01:50:18;96384.44;;;12.98;66.40
21185;BME280;18176;49.502;11.754;2023-11-21T01:54:20;96377.22;;;12.88;67.24
21185;BME280;18176;49.502;11.754;2023-11-21T01:58:24;96367.63;;;12.82;67.11
21185;BME280;18176;49.502;11.754;2023-11-21T02:02:24;96373.41;;;12.74;67.92
21185;BME280;18176;49.502;11.754;2023-11-21T02:06:25;96371.81;;;12.73;67.90
21185;BME280;18176;49.502;11.754;2023-11-21T02:10:28;96363.69;;;12.95;66.90
21185;BME280;18176;49.502;11.754;2023-11-21T02:14:31;96354.66;;;12.96;67.07
21185;BME280;18176;49.502;11.754;2023-11-21T02:18:31;96358.31;;;12.85;67.28
21185;BME280;18176;49.502;11.754;2023-11-21T02:22:37;96346.84;;;12.79;67.09
21185;BME280;18176;49.502;11.754;2023-11-21T02:26:42;96358.59;;;12.88;67.20
21185;BME280;18176;49.502;11.754;2023-11-21T02:30:43;96352.22;;;12.84;66.90
21185;BME280;18176;49.502;11.754;2023-11-21T02:34:44;96350.59;;;12.83;66.85
21185;BME280;18176;49.502;11.754;2023-11-21T02:38:44;96356.66;;;12.74;66.80
21185;BME280;18176;49.502;11.754;2023-11-21T02:42:47;96323.34;;;12.56;66.84
21185;BME280;18176;49.502;11.754;2023-11-21T02:46:49;96341.66;;;12.57;67.30
21185;BME280;18176;49.502;11.754;2023-11-21T02:50:49;96337.66;;;12.55;67.41
21185;BME280;18176;49.502;11.754;2023-11-21T02:54:50;96333.97;;;12.56;67.26
21185;BME280;18176;49.502;11.754;2023-11-21T02:58:56;96343.06;;;12.65;67.16
21185;BME280;18176;49.502;11.754;2023-11-21T03:02:57;96344.78;;;12.86;66.63
21185;BME280;18176;49.502;11.754;2023-11-21T03:06:58;96352.94;;;12.75;67.06
21185;BME280;18176;49.502;11.754;2023-11-21T03:10:58;96364.91;;;12.72;66.98
21185;BME280;18176;49.502;11.754;2023-11-21T03:15:04;96332.88;;;12.52;66.73
21185;BME280;18176;49.502;11.754;2023-11-21T03:19:04;96349.44;;;12.69;67.00
21185;BME280;18176;49.502;11.754;2023-11-21T03:23:05;96358.50;;;12.68;66.86
21185;BME280;18176;49.502;11.754;2023-11-21T03:27:06;96359.38;;;12.84;66.42
21185;BME280;18176;49.502;11.754;2023-11-21T03:31:09;96351.66;;;12.87;66.29
21185;BME280;18176;49.502;11.754;2023-11-21T03:35:09;96359.56;;;12.72;66.88
21185;BME280;18176;49.502;11.754;2023-11-21T03:39:09;96360.16;;;12.79;66.77
21185;BME280;18176;49.502;11.754;2023-11-21T03:43:10;96357.75;;;12.78;66.67
21185;BME280;18176;49.502;11.754;2023-11-21T03:47:13;96343.69;;;12.82;66.62
21185;BME280;18176;49.502;11.754;2023-11-21T03:51:13;96344.13;;;12.69;66.52
21185;BME280;18176;49.502;11.754;2023-11-21T03:55:14;96366.50;;;12.73;66.41
21185;BME280;18176;49.502;11.754;2023-11-21T03:59:14;96318.06;;;12.61;66.59
21185;BME280;18176;49.502;11.754;2023-11-21T04:03:17;96348.72;;;12.79;66.60
21185;BME280;18176;49.502;11.754;2023-11-21T04:07:17;96335.13;;;12.70;66.50
21185;BME280;18176;49.502;11.754;2023-11-21T04:11:19;96366.50;;;12.73;66.62
21185;BME280;18176;49.502;11.754;2023-11-21T04:15:19;96366.00;;;12.81;66.68
21185;BME280;18176;49.502;11.754;2023-11-21T04:19:22;96367.94;;;12.91;66.24
21185;BME280;18176;49.502;11.754;2023-11-21T04:23:23;96351.66;;;12.87;66.27
21185;BME280;18176;49.502;11.754;2023-11-21T04:27:23;96359.19;;;12.95;66.17
21185;BME280;18176;49.502;11.754;2023-11-21T04:31:23;96356.88;;;12.67;67.16
21185;BME280;18176;49.502;11.754;2023-11-21T04:35:26;96355.66;;;12.43;68.47
21185;BME280;18176;49.502;11.754;2023-11-21T04:39:26;96354.56;;;12.39;67.93
21185;BME280;18176;49.502;11.754;2023-11-21T04:43:27;96371.63;;;12.43;68.19
21185;BME280;18176;49.502;11.754;2023-11-21T04:47:27;96374.09;;;12.54;67.80
21185;BME280;18176;49.502;11.754;2023-11-21T04:51:30;96373.88;;;12.61;67.62
21185;BME280;18176;49.502;11.754;2023-11-21T04:55:30;96378.88;;;12.57;67.55
21185;BME280;18176;49.502;11.754;2023-11-21T04:59:30;96379.75;;;12.68;67.15
21185;BME280;18176;49.502;11.754;2023-11-21T05:03:31;96385.84;;;12.68;67.31
21185;BME280;18176;49.502;11.754;2023-11-21T05:07:34;96362.06;;;12.47;67.38
21185;BME280;18176;49.502;11.754;2023-11-21T05:11:35;96398.31;;;12.63;67.31
21185;BME280;18176;49.502;11.754;2023-11-21T05:15:35;96390.91;;;12.65;67.19
21185;BME280;18176;49.502;11.754;2023-11-21T05:19:35;96389.81;;;12.61;67.69
21185;BME280;18176;49.502;11.754;2023-11-21T05:23:40;96392.16;;;12.57;67.64
21185;BME280;18176;49.502;11.754;2023-11-21T05:27:40;96375.81;;;12.39;67.77
21185;BME280;18176;49.502;11.754;2023-11-21T05:31:40;96390.66;;;12.35;68.32
21185;BME280;18176;49.502;11.754;2023-11-21T05:35:41;96393.28;;;12.30;68.53
21185;BME280;18176;49.502;11.754;2023-11-21T05:39:44;96401.78;;;12.32;68.17
21185;BME280;18176;49.502;11.754;2023-11-21T05:43:44;96400.09;;;12.21;68.74
21185;BME280;18176;49.502;11.754;2023-11-21T05:47:46;96396.41;;;12.22;68.83
21185;BME280;18176;49.502;11.754;2023-11-21T05:51:46;96389.56;;;12.31;68.19
21185;BME280;18176;49.502;11.754;2023-11-21T05:55:49;96401.28;;;12.35;68.15
21185;BME280;18176;49.502;11.754;2023-11-21T05:59:50;96393.81;;;12.27;68.30
21185;BME280;18176;49.502;11.754;2023-11-21T06:03:50;96398.91;;;12.07;68.57
21185;BME280;18176;49.502;11.754;2023-11-21T06:07:52;96382.91;;;11.96;68.53
21185;BME280;18176;49.502;11.754;2023-11-21T06:11:56;96398.28;;;11.94;68.57
21185;BME280;18176;49.502;11.754;2023-11-21T06:15:57;96403.63;;;11.99;68.53
21185;BME280;18176;49.502;11.754;2023-11-21T06:19:58;96389.50;;;11.94;69.36
21185;BME280;18176;49.502;11.754;2023-11-21T06:23:58;96424.06;;;12.26;69.66
21185;BME280;18176;49.502;11.754;2023-11-21T06:28:01;96434.25;;;12.39;69.72
21185;BME280;18176;49.502;11.754;2023-11-21T06:32:02;96438.28;;;12.41;69.35
21185;BME280;18176;49.502;11.754;2023-11-21T06:36:04;96431.66;;;12.44;69.15
21185;BME280;18176;49.502;11.754;2023-11-21T06:40:07;96447.00;;;12.37;69.23
21185;BME280;18176;49.502;11.754;2023-11-21T06:44:10;96428.44;;;12.42;68.71
21185;BME280;18176;49.502;11.754;2023-11-21T06:48:11;96434.78;;;12.36;68.80
21185;BME280;18176;49.502;11.754;2023-11-21T06:52:12;96434.78;;;12.36;68.24
21185;BME280;18176;49.502;11.754;2023-11-21T06:56:16;96392.44;;;11.92;68.44
21185;BME280;18176;49.502;11.754;2023-11-21T07:00:19;96446.81;;;12.17;68.59
21185;BME280;18176;49.502;11.754;2023-11-21T07:04:20;96441.94;;;12.35;68.35
21185;BME280;18176;49.502;11.754;2023-11-21T07:08:20;96432.06;;;12.31;68.39
21185;BME280;18176;49.502;11.754;2023-11-21T07:12:20;96458.53;;;12.47;68.33
21185;BME280;18176;49.502;11.754;2023-11-21T07:16:25;96462.94;;;12.37;68.25
21185;BME280;18176;49.502;11.754;2023-11-21T07:20:28;96367.28;;;11.73;68.62
21185;BME280;18176;49.502;11.754;2023-11-21T07:24:29;96458.66;;;12.31;69.39
21185;BME280;18176;49.502;11.754;2023-11-21T07:28:29;96481.53;;;12.68;69.65
21185;BME280;18176;49.502;11.754;2023-11-21T07:32:32;96486.31;;;12.98;68.65
21185;BME280;18176;49.502;11.754;2023-11-21T07:36:32;96487.91;;;12.99;68.32
21185;BME280;18176;49.502;11.754;2023-11-21T07:40:33;96489.16;;;13.23;67.56
21185;BME280;18176;49.502;11.754;2023-11-21T07:44:33;96488.09;;;13.24;67.86
21185;BME280;18176;49.502;11.754;2023-11-21T07:48:36;96491.78;;;13.18;67.76
21185;BME280;18176;49.502;11.754;2023-11-21T07:52:37;96506.22;;;13.27;67.97
21185;BME280;18176;49.502;11.754;2023-11-21T07:56:37;96493.47;;;13.29;67.06
21185;BME280;18176;49.502;11.754;2023-11-21T08:00:37;96511.38;;;13.44;67.45
21185;BME280;18176;49.502;11.754;2023-11-21T08:04:40;96521.28;;;13.54;67.38
21185;BME280;18176;49.502;11.754;2023-11-21T08:08:41;96514.47;;;13.78;67.22
21185;BME280;18176;49.502;11.754;2023-11-21T08:12:42;96518.84;;;14.09;66.99
21185;BME280;18176;49.502;11.754;2023-11-21T08:16:42;96521.81;;;14.18;66.69
21185;BME280;18176;49.502;11.754;2023-11-21T08:20:45;96511.97;;;14.18;66.25
21185;BME280;18176;49.502;11.754;2023-11-21T08:24:47;96530.94;;;14.37;66.07
21185;BME280;18176;49.502;11.754;2023-11-21T08:28:47;96524.25;;;14.29;65.88
21185;BME280;18176;49.502;11.754;2023-11-21T08:32:49;96525.53;;;14.17;65.63
21185;BME280;18176;49.502;11.754;2023-11-21T08:36:54;96527.16;;;14.28;65.43
21185;BME280;18176;49.502;11.754;2023-11-21T08:40:55;96529.50;;;14.14;65.39
21185;BME280;18176;49.502;11.754;2023-11-21T08:44:55;96529.09;;;14.37;64.87
21185;BME280;18176;49.502;11.754;2023-11-21T08:48:55;96534.16;;;14.49;65.08
21185;BME280;18176;49.502;11.754;2023-11-21T08:52:58;96529.13;;;14.52;64.88
21185;BME280;18176;49.502;11.754;2023-11-21T08:56:58;96534.44;;;14.57;65.13
21185;BME280;18176;49.502;11.754;2023-11-21T09:00:59;96537.16;;;14.77;65.16
21185;BME280;18176;49.502;11.754;2023-11-21T09:04:59;96531.28;;;14.81;64.71
21185;BME280;18176;49.502;11.754;2023-11-21T09:09:03;96551.56;;;14.97;64.99
21185;BME280;18176;49.502;11.754;2023-11-21T09:13:06;96545.19;;;15.03;64.94
21185;BME280;18176;49.502;11.754;2023-11-21T09:17:06;96554.78;;;14.99;62.02
21185;BME280;18176;49.502;11.754;2023-11-21T09:21:08;96560.63;;;15.06;62.35
21185;BME280;18176;49.502;11.754;2023-11-21T09:25:12;96550.50;;;14.93;61.65
21185;BME280;18176;49.502;11.754;2023-11-21T09:29:12;96573.19;;;15.00;61.29
21185;BME280;18176;49.502;11.754;2023-11-21T09:33:13;96578.75;;;14.84;60.80
21185;BME280;18176;49.502;11.754;2023-11-21T09:37:13;96576.13;;;14.89;60.99
21185;BME280;18176;49.502;11.754;2023-11-21T09:41:28;96586.75;;;14.78;60.61
21185;BME280;18176;49.502;11.754;2023-11-21T09:45:35;96581.38;;;14.58;61.43
21185;BME280;18176;49.502;11.754;2023-11-21T09:49:37;96579.78;;;14.57;60.87
21185;BME280;18176;49.502;11.754;2023-11-21T09:53:41;96581.66;;;14.62;61.96
21185;BME280;18176;49.502;11.754;2023-11-21T09:57:47;96581.72;;;15.02;61.31
21185;BME280;18176;49.502;11.754;2023-11-21T10:01:48;96591.09;;;15.15;60.62
21185;BME280;18176;49.502;11.754;2023-11-21T10:05:53;96575.06;;;15.35;60.03
21185;BME280;18176;49.502;11.754;2023-11-21T10:09:55;96571.84;;;15.18;60.25
21185;BME280;18176;49.502;11.754;2023-11-21T10:14:00;96568.66;;;15.26;60.18
21185;BME280;18176;49.502;11.754;2023-11-21T10:18:04;96569.19;;;15.58;60.32
21185;BME280;18176;49.502;11.754;2023-11-21T10:22:07;96573.34;;;15.99;59.21
21185;BME280;18176;49.502;11.754;2023-11-21T10:26:11;96565.41;;;15.69;58.33
21185;BME280;18176;49.502;11.754;2023-11-21T10:30:32;96571.53;;;15.80;58.32
21185;BME280;18176;49.502;11.754;2023-11-21T10:34:34;96561.84;;;16.09;58.59
21185;BME280;18176;49.502;11.754;2023-11-21T10:38:42;96562.06;;;16.17;57.47
21185;BME280;18176;49.502;11.754;2023-11-21T10:42:48;96573.91;;;15.86;56.91
21185;BME280;18176;49.502;11.754;2023-11-21T10:46:54;96577.44;;;15.67;56.99
21185;BME280;18176;49.502;11.754;2023-11-21T10:50:58;96565.19;;;15.51;57.70
21185;BME280;18176;49.502;11.754;2023-11-21T10:54:59;96588.38;;;15.20;59.20
21185;BME280;18176;49.502;11.754;2023-11-21T10:59:01;96586.00;;;15.13;59.43
21185;BME280;18176;49.502;11.754;2023-11-21T11:03:06;96578.25;;;15.22;59.26
21185;BME280;18176;49.502;11.754;2023-11-21T11:07:16;96582.81;;;15.21;59.01
21185;BME280;18176;49.502;11.754;2023-11-21T11:11:17;96576.63;;;15.41;59.51
21185;BME280;18176;49.502;11.754;2023-11-21T11:15:17;96566.25;;;15.34;59.24
21185;BME280;18176;49.502;11.754;2023-11-21T11:19:21;96570.47;;;15.66;59.11
21185;BME280;18176;49.502;11.754;2023-11-21T11:23:46;96558.19;;;15.75;58.12
21185;BME280;18176;49.502;11.754;2023-11-21T11:28:00;96576.78;;;16.05;57.83
21185;BME280;18176;49.502;11.754;2023-11-21T11:32:15;96556.31;;;16.44;56.63
21185;BME280;18176;49.502;11.754;2023-11-21T11:36:28;96581.25;;;16.30;56.62
21185;BME280;18176;49.502;11.754;2023-11-21T11:40:39;96581.22;;;16.35;56.13
21185;BME280;18176;49.502;11.754;2023-11-21T11:44:51;96583.88;;;16.35;55.93
21185;BME280;18176;49.502;11.754;2023-11-21T11:49:03;96558.47;;;15.68;58.20
21185;BME280;18176;49.502;11.754;2023-11-21T11:53:16;96579.06;;;15.27;59.47
21185;BME280;18176;49.502;11.754;2023-11-21T11:57:17;96533.97;;;14.75;59.93
21185;BME280;18176;49.502;11.754;2023-11-21T12:01:19;96533.41;;;14.68;60.47
21185;BME280;18176;49.502;11.754;2023-11-21T12:05:21;96578.50;;;14.75;60.44
21185;BME280;18176;49.502;11.754;2023-11-21T12:09:28;96587.00;;;14.72;61.11
21185;BME280;18176;49.502;11.754;2023-11-21T12:13:29;96594.78;;;14.89;60.55
21185;BME280;18176;49.502;11.754;2023-11-21T12:17:29;96597.97;;;14.91;60.32
21185;BME280;18176;49.502;11.754;2023-11-21T12:21:30;96587.78;;;14.52;60.88
21185;BME280;18176;49.502;11.754;2023-11-21T12:25:33;96592.84;;;14.59;60.91
21185;BME280;18176;49.502;11.754;2023-11-21T12:29:34;96599.59;;;14.87;60.57
21185;BME280;18176;49.502;11.754;2023-11-21T12:33:35;96593.75;;;15.10;60.42
21185;BME280;18176;49.502;11.754;2023-11-21T12:37:36;96607.63;;;15.32;60.16
21185;BME280;18176;49.502;11.754;2023-11-21T12:41:40;96589.72;;;15.32;59.98
21185;BME280;18176;49.502;11.754;2023-11-21T12:45:40;96611.91;;;15.53;59.26
21185;BME280;18176;49.502;11.754;2023-11-21T12:49:41;96578.81;;;15.24;58.36
21185;BME280;18176;49.502;11.754;2023-11-21T12:53:42;96600.66;;;15.41;58.02
21185;BME280;18176;49.502;11.754;2023-11-21T12:57:49;96607.91;;;15.45;58.26
21185;BME280;18176;49.502;11.754;2023-11-21T13:01:54;96617.78;;;15.45;58.31
21185;BME280;18176;49.502;11.754;2023-11-21T13:05:57;96615.06;;;15.20;58.12
21185;BME280;18176;49.502;11.754;2023-11-21T13:09:58;96622.84;;;15.41;58.52
21185;BME280;18176;49.502;11.754;2023-11-21T13:14:07;96614.03;;;15.61;58.60
21185;BME280;18176;49.502;11.754;2023-11-21T13:18:08;96610.25;;;15.82;58.48
21185;BME280;18176;49.502;11.754;2023-11-21T13:22:10;96619.38;;;15.71;57.86
21185;BME280;18176;49.502;11.754;2023-11-21T13:26:10;96620.94;;;15.77;57.57
21185;BME280;18176;49.502;11.754;2023-11-21T13:30:16;96618.84;;;15.59;58.21
21185;BME280;18176;49.502;11.754;2023-11-21T13:34:20;96610.28;;;15.22;59.02
21185;BME280;18176;49.502;11.754;2023-11-21T13:38:29;96629.53;;;15.54;58.93
21185;BME280;18176;49.502;11.754;2023-11-21T13:42:31;96631.69;;;15.47;58.64
21185;BME280;18176;49.502;11.754;2023-11-21T13:46:34;96629.00;;;15.57;58.84
21185;BME280;18176;49.502;11.754;2023-11-21T13:50:35;96635.38;;;15.36;58.79
21185;BME280;18176;49.502;11.754;2023-11-21T13:54:36;96638.03;;;15.11;58.85
21185;BME280;18176;49.502;11.754;2023-11-21T13:58:36;96643.34;;;14.91;58.78
21185;BME280;18176;49.502;11.754;2023-11-21T14:02:46;96643.25;;;14.60;59.57
21185;BME280;18176;49.502;11.754;2023-11-21T14:06:49;96648.00;;;14.43;60.42
21185;BME280;18176;49.502;11.754;2023-11-21T14:10:52;96647.94;;;14.33;60.56
21185;BME280;18176;49.502;11.754;2023-11-21T14:14:55;96643.84;;;14.88;61.18
21185;BME280;18176;49.502;11.754;2023-11-21T14:18:57;96654.22;;;16.30;59.21
21185;BME280;18176;49.502;11.754;2023-11-21T14:23:10;96659.16;;;17.21;56.40
21185;BME280;18176;49.502;11.754;2023-11-21T14:27:10;96644.84;;;17.40;53.27
21185;BME280;18176;49.502;11.754;2023-11-21T14:31:12;96646.03;;;16.80;53.56
21185;BME280;18176;49.502;11.754;2023-11-21T14:35:17;96653.91;;;16.52;53.76
21185;BME280;18176;49.502;11.754;2023-11-21T14:39:17;96640.09;;;16.20;54.57
21185;BME280;18176;49.502;11.754;2023-11-21T14:43:21;96671.53;;;16.63;54.53
21185;BME280;18176;49.502;11.754;2023-11-21T14:47:23;96653.75;;;16.87;52.68
21185;BME280;18176;49.502;11.754;2023-11-21T14:51:28;96673.69;;;17.15;53.51
21185;BME280;18176;49.502;11.754;2023-11-21T14:55:41;96672.72;;;17.34;52.53
21185;BME280;18176;49.502;11.754;2023-11-21T14:59:54;96665.66;;;17.10;52.85
21185;BME280;18176;49.502;11.754;2023-11-21T15:03:55;96676.72;;;16.93;54.05
21185;BME280;18176;49.502;11.754;2023-11-21T15:07:58;96627.69;;;16.59;54.30
21185;BME280;18176;49.502;11.754;2023-11-21T15:12:11;96694.25;;;16.70;54.30
21185;BME280;18176;49.502;11.754;2023-11-21T15:16:17;96709.06;;;16.28;55.41
21185;BME280;18176;49.502;11.754;2023-11-21T15:20:17;96693.06;;;15.77;56.50
21185;BME280;18176;49.502;11.754;2023-11-21T15:24:23;96708.56;;;15.55;56.68
21185;BME280;18176;49.502;11.754;2023-11-21T15:28:23;96716.00;;;15.43;57.13
21185;BME280;18176;49.502;11.754;2023-11-21T15:32:26;96717.00;;;15.07;57.90
21185;BME280;18176;49.502;11.754;2023-11-21T15:36:26;96719.06;;;14.90;58.80
21185;BME280;18176;49.502;11.754;2023-11-21T15:40:29;96721.63;;;14.54;58.84
21185;BME280;18176;49.502;11.754;2023-11-21T15:44:30;96722.63;;;14.43;58.14
21185;BME280;18176;49.502;11.754;2023-11-21T15:48:30;96725.19;;;14.28;57.39
21185;BME280;18176;49.502;11.754;2023-11-21T15:52:30;96731.00;;;14.25;57.23
21185;BME280;18176;49.502;11.754;2023-11-21T15:56:33;96731.00;;;14.25;57.45
21185;BME280;18176;49.502;11.754;2023-11-21T16:00:34;96726.13;;;14.12;57.56
21185;BME280;18176;49.502;11.754;2023-11-21T16:04:34;96749.84;;;13.77;59.11
21185;BME280;18176;49.502;11.754;2023-11-21T16:08:35;96746.00;;;13.94;59.04
21185;BME280;18176;49.502;11.754;2023-11-21T16:12:39;96735.47;;;13.78;58.53
21185;BME280;18176;49.502;11.754;2023-11-21T16:16:40;96755.84;;;13.94;59.06
21185;BME280;18176;49.502;11.754;2023-11-21T16:20:40;96765.47;;;14.00;58.94
21185;BME280;18176;49.502;11.754;2023-11-21T16:24:41;96746.81;;;13.95;58.80
21185;BME280;18176;49.502;11.754;2023-11-21T16:28:44;96768.22;;;14.10;58.94
21185;BME280;18176;49.502;11.754;2023-11-21T16:32:44;96778.09;;;13.78;59.90
21185;BME280;18176;49.502;11.754;2023-11-21T16:36:45;96781.22;;;13.70;60.20
21185;BME280;18176;49.502;11.754;2023-11-21T16:40:46;96781.84;;;13.82;60.03
21185;BME280;18176;49.502;11.754;2023-11-21T16:44:50;96782.31;;;13.74;60.00
21185;BME280;18176;49.502;11.754;2023-11-21T16:48:50;96784.00;;;13.85;60.11
21185;BME280;18176;49.502;11.754;2023-11-21T16:52:51;96797.28;;;13.80;60.38
21185;BME280;18176;49.502;11.754;2023-11-21T16:56:51;96797.88;;;13.87;60.02
21185;BME280;18176;49.502;11.754;2023-11-21T17:00:54;96808.44;;;13.77;60.39
21185;BME280;18176;49.502;11.754;2023-11-21T17:04:55;96795.75;;;13.89;59.67
21185;BME280;18176;49.502;11.754;2023-11-21T17:08:55;96800.31;;;13.93;59.91
21185;BME280;18176;49.502;11.754;2023-11-21T17:12:58;96813.47;;;14.05;59.54
21185;BME280;18176;49.502;11.754;2023-11-21T17:17:02;96806.41;;;13.89;59.78
21185;BME280;18176;49.502;11.754;2023-11-21T17:21:05;96815.44;;;13.83;60.33
21185;BME280;18176;49.502;11.754;2023-11-21T17:25:12;96828.44;;;13.79;60.65
21185;BME280;18176;49.502;11.754;2023-11-21T17:29:13;96828.19;;;13.81;60.39
21185;BME280;18176;49.502;11.754;2023-11-21T17:33:16;96845.22;;;13.80;60.62
21185;BME280;18176;49.502;11.754;2023-11-21T17:37:17;96840.59;;;13.70;60.66
21185;BME280;18176;49.502;11.754;2023-11-21T17:41:20;96833.28;;;13.61;61.01
21185;BME280;18176;49.502;11.754;2023-11-21T17:45:21;96845.97;;;13.49;61.16
21185;BME280;18176;49.502;11.754;2023-11-21T17:49:24;96854.50;;;13.29;61.23
21185;BME280;18176;49.502;11.754;2023-11-21T17:53:27;96852.50;;;13.14;61.04
21185;BME280;18176;49.502;11.754;2023-11-21T17:57:27;96854.44;;;13.02;62.07
21185;BME280;18176;49.502;11.754;2023-11-21T18:01:27;96848.22;;;12.75;62.13
21185;BME280;18176;49.502;11.754;2023-11-21T18:05:33;96857.09;;;12.64;61.97
21185;BME280;18176;49.502;11.754;2023-11-21T18:09:34;96862.28;;;12.54;61.81
21185;BME280;18176;49.502;11.754;2023-11-21T18:13:36;96870.81;;;12.39;62.69
21185;BME280;18176;49.502;11.754;2023-11-21T18:17:37;96864.38;;;12.52;62.63
21185;BME280;18176;49.502;11.754;2023-11-21T18:21:43;96872.06;;;12.70;62.90
21185;BME280;18176;49.502;11.754;2023-11-21T18:25:43;96871.59;;;12.73;62.78
21185;BME280;18176;49.502;11.754;2023-11-21T18:29:43;96869.97;;;12.72;63.48
21185;BME280;18176;49.502;11.754;2023-11-21T18:33:43;96883.31;;;12.94;63.42
21185;BME280;18176;49.502;11.754;2023-11-21T18:37:46;96885.91;;;13.05;63.16
21185;BME280;18176;49.502;11.754;2023-11-21T18:41:47;96898.56;;;12.82;63.96
21185;BME280;18176;49.502;11.754;2023-11-21T18:45:49;96901.59;;;12.90;63.50
21185;BME280;18176;49.502;11.754;2023-11-21T18:49:49;96896.63;;;12.77;63.89
21185;BME280;18176;49.502;11.754;2023-11-21T18:53:52;96883.53;;;12.92;62.91
21185;BME280;18176;49.502;11.754;2023-11-21T18:57:52;96902.97;;;13.09;62.53
21185;BME280;18176;49.502;11.754;2023-11-21T19:01:53;96928.28;;;13.12;62.97
21185;BME280;18176;49.502;11.754;2023-11-21T19:05:53;96943.75;;;12.98;62.97
21185;BME280;18176;49.502;11.754;2023-11-21T19:09:56;96913.50;;;12.66;61.29
21185;BME280;18176;49.502;11.754;2023-11-21T19:13:56;96938.44;;;12.48;60.99
21185;BME280;18176;49.502;11.754;2023-11-21T19:17:58;96939.06;;;12.39;61.26
21185;BME280;18176;49.502;11.754;2023-11-21T19:21:58;96938.44;;;12.32;60.79
21185;BME280;18176;49.502;11.754;2023-11-21T19:26:01;96972.91;;;12.27;61.21
21185;BME280;18176;49.502;11.754;2023-11-21T19:30:02;96977.16;;;11.99;62.65
21185;BME280;18176;49.502;11.754;2023-11-21T19:34:05;96989.72;;;11.64;63.49
21185;BME280;18176;49.502;11.754;2023-11-21T19:38:06;96991.56;;;11.75;63.62
21185;BME280;18176;49.502;11.754;2023-11-21T19:42:09;96956.59;;;11.27;63.86
21185;BME280;18176;49.502;11.754;2023-11-21T19:46:10;97009.22;;;11.70;63.91
21185;BME280;18176;49.502;11.754;2023-11-21T19:50:10;97011.88;;;11.58;63.75
21185;BME280;18176;49.502;11.754;2023-11-21T19:54:11;97021.16;;;11.44;63.33
21185;BME280;18176;49.502;11.754;2023-11-21T19:58:14;97023.69;;;11.39;61.70
21185;BME280;18176;49.502;11.754;2023-11-21T20:02:15;97014.13;;;10.92;61.39
21185;BME280;18176;49.502;11.754;2023-11-21T20:06:16;97042.47;;;10.91;61.33
21185;BME280;18176;49.502;11.754;2023-11-21T20:10:18;97040.28;;;10.77;60.81
21185;BME280;18176;49.502;11.754;2023-11-21T20:14:22;97028.75;;;10.83;60.22
21185;BME280;18176;49.502;11.754;2023-11-21T20:18:24;97023.53;;;10.65;59.18
21185;BME280;18176;49.502;11.754;2023-11-21T20:22:28;97065.22;;;10.57;60.26
21185;BME280;18176;49.502;11.754;2023-11-21T20:26:33;97035.56;;;10.37;60.35
21185;BME280;18176;49.502;11.754;2023-11-21T20:30:37;97076.09;;;10.68;60.46
21185;BME280;18176;49.502;11.754;2023-11-21T20:34:37;97081.75;;;10.41;60.74
21185;BME280;18176;49.502;11.754;2023-11-21T20:38:38;97098.69;;;10.40;61.15
21185;BME280;18176;49.502;11.754;2023-11-21T20:42:39;97060.63;;;10.05;60.91
21185;BME280;18176;49.502;11.754;2023-11-21T20:46:46;97099.47;;;10.11;60.22
21185;BME280;18176;49.502;11.754;2023-11-21T20:50:54;97106.06;;;10.20;59.71
21185;BME280;18176;49.502;11.754;2023-11-21T20:54:54;97117.25;;;10.22;59.91
21185;BME280;18176;49.502;11.754;2023-11-21T20:58:55;97107.16;;;9.95;60.08
21185;BME280;18176;49.502;11.754;2023-11-21T21:03:00;97110.84;;;9.75;60.27
21185;BME280;18176;49.502;11.754;2023-11-21T21:07:01;97115.16;;;9.88;60.05